This is the latest recevied weather packets stored in our database for station/object TA2EE-10. If no packets are shown the sender has not sent any weather packets the latest 10 day(s).
| Time | Temp. | Humidity | Pressure | Rain* | Wind** | Luminosity | Snow |
|---|---|---|---|---|---|---|---|
| 1777394098 | 26.11° C | 27% | 911 hPa | - | - | 0 W/m² | - |
| 1777390002 | 27.78° C | 22% | 911 hPa | - | - | 0 W/m² | - |
| 1777388122 | 28.33° C | 23% | 911 hPa | - | - | 0 W/m² | - |
| 1777387880 | 28.33° C | 23% | 911 hPa | - | - | 0 W/m² | - |
| 1777385758 | 28.33° C | 23% | 911 hPa | - | - | 0 W/m² | - |
| 1777383636 | 27.78° C | 24% | 911 hPa | - | - | 0 W/m² | - |
| 1777381762 | 28.89° C | 23% | 911 hPa | - | - | 0 W/m² | - |
| 1777381513 | 28.89° C | 23% | 911 hPa | - | - | 0 W/m² | - |
| 1777379391 | 28.33° C | 22% | 912 hPa | - | - | 0 W/m² | - |
| 1777377269 | 28.33° C | 23% | 912 hPa | - | - | 0 W/m² | - |
| 1777375148 | 28.89° C | 25% | 912 hPa | - | - | 0 W/m² | - |
| 1777373025 | 28.89° C | 25% | 913 hPa | - | - | 0 W/m² | - |
| 1777370903 | 29.44° C | 24% | 913 hPa | - | - | 0 W/m² | - |
| 1777368781 | 30.56° C | 23% | 913 hPa | - | - | 0 W/m² | - |
| 1777366659 | 30° C | 24% | 913 hPa | - | - | 0 W/m² | - |
| 1777364763 | 30° C | 26% | 914 hPa | - | - | 0 W/m² | - |
| 1777364537 | 30° C | 26% | 914 hPa | - | - | 0 W/m² | - |
| 1777362415 | 29.44° C | 25% | 914 hPa | - | - | 0 W/m² | - |
| 1777360293 | 28.89° C | 26% | 914 hPa | - | - | 0 W/m² | - |
| 1777358170 | 23.89° C | 33% | 914 hPa | - | - | 0 W/m² | - |
| 1777356048 | 28.33° C | 26% | 914 hPa | - | - | 0 W/m² | - |
| 1777353926 | 26.67° C | 27% | 915 hPa | - | - | 0 W/m² | - |
| 1777353809 | 26.67° C | 27% | 915 hPa | - | - | 0 W/m² | - |
| 1777351687 | 24.44° C | 30% | 915 hPa | - | - | 0 W/m² | - |
| 1777349565 | 22.78° C | 32% | 915 hPa | - | - | 0 W/m² | - |
* Rain since midnight (hover to see other rain measurements)
** Current wind speed in m/s (hover to see current wind gust speed)